Terminal Aerodrome Forecast
Issued by NWS North Platte, NE

Home | Current Version | Previous Version | Graphics & Text | Print | Product List | Glossary On
Versions: 1 2 3 4 5 6 7 8 9 10 11 12 13 14 15 16 17
000
FTUS43 KLBF 240348 AAA
TAFVTN
TAF AMD
KVTN 240348Z 2404/2424 29008G17KT P6SM -RA OVC040
     FM240900 29009KT P6SM -RA OVC020
     FM241200 30015G23KT P6SM -RA OVC012
     FM241500 33019G27KT P6SM -RA OVC012=

USA.gov is the U.S. government's official web portal to all federal, state and local government web resources and services.